Tiempo atmosférico en la estación meteorológica de San Bartolome Tirajana, El Matorral, Las Palmas (41 m.)



Fecha
DESCASC
Temp. máxima en grados centígrados (hora)
DESCASC
Temp. mínima en grados centígrados (hora)
DESCASC
Temp. media en grados centígrados
DESCASC
Racha de viento máxima en m/sg (hora)
DESCASC
Velocidad máxima media en intervalos de 10 minutos(hora)
DESCASC
Precipitaciones diarias en mm
DESCASC
Precipitaciones de 00:00 a 06:00 en mm
DESCASC
Precipitaciones de 06:00 a 12:00 en mm
DESCASC
Precipitaciones de 12:00 a 18:00 en mm
DESCASC
Precipitaciones de 18:00 a 24:00 en mm
DESCASC
24-05-2020 30.4 (18:00) 21.6 (00:00) 26 17.5 (04:40) 11.67 (03:40) 0 0 0 0 0
23-05-2020 29.7 (12:40) 21.5 (00:00) 25.6 16.67 (02:10) 10 (15:30) 0 0 0 0 0
25-05-2020 28.9 (17:20) 18.5 (00:00) 23.7 11.39 (14:10) 7.78 (14:30) 0 0 0 0 0
22-05-2020 28.4 (15:50) 17.6 (00:00) 23 16.39 (01:00) 9.17 (19:50) 0 0 0 0 0
26-05-2020 27.5 (11:30) 17.5 (00:00) 22.5 9.44 (15:40) 6.11 (15:30) 0 0 0 0 0
20-05-2020 27.4 (16:30) 15.8 (00:00) 21.6 16.11 (18:40) 10.28 (16:40) 0 0 0 0 0
10-05-2020 26.5 (14:40) 17.4 (00:00) 21.9 8.89 (14:00) 5.83 (13:40) 0 0 0 0 0
29-05-2020 26.4 (13:50) 18.3 (00:00) 22.3 10 (13:20) 6.39 (13:30) 0 0 0 0 0
01-06-2020 26.3 (15:00) 16.4 (00:00) 21.3 10 (18:00) 7.5 (18:50) 0 0 0 0 0
28-05-2020 26.2 (11:30) 15.3 (00:00) 20.8 10 (15:10) 6.39 (14:50) 0 0 0 0 0
11-05-2020 26.1 (14:50) 17.1 (00:00) 21.6 7.5 (13:40) 5 (13:10) 0 0 0 0 0
27-05-2020 26.1 (17:20) 17.7 (00:00) 21.9 9.17 (05:20) 6.11 (06:20) 0 0 0 0 0
13-05-2020 25.9 (16:30) 17.4 (00:00) 21.6 7.5 (13:40) 5 (13:40) 0 0 0 0 0
31-05-2020 25.9 (12:40) 17 (00:00) 21.4 6.39 (11:40) 3.61 (11:30) 0 0 0 0 0
09-05-2020 25.8 (13:00) 15.3 (00:00) 20.5 10.28 (15:10) 6.39 (14:50) 0 0 0 0 0
14-05-2020 25.6 (15:30) 16.1 (00:00) 20.9 7.5 (23:50) 4.44 (13:30) 0 0 0 0 0
19-05-2020 25.6 (16:10) 15.1 (00:00) 20.4 8.33 (11:50) 5.28 (17:00) 0 0 0 0 0
15-05-2020 25.5 (15:00) 14.4 (00:00) 19.9 12.22 (21:20) 7.22 (20:30) 0 0 0 0 0
03-05-2020 25.4 (17:50) 15 (00:00) 20.2 13.06 (15:20) 8.61 (14:40) 0 0 0 0 0
18-05-2020 25.1 (14:50) 17.9 (00:00) 21.5 12.78 (12:40) 8.06 (12:50) 0 0 0 0 0
08-05-2020 25.1 (15:30) 15.2 (00:00) 20.2 12.5 (15:00) 7.78 (15:10) 0 0 0 0 0
07-05-2020 25.1 (14:10) 15.9 (00:00) 20.5 12.5 (14:20) 7.78 (13:20) 0 0 0 0 0
21-05-2020 25 (15:00) 18 (00:00) 21.5 15 (11:20) 9.44 (11:40) 0 0 0 0 0
12-05-2020 24.7 (11:40) 17.8 (00:00) 21.3 6.94 (13:00) 4.72 (13:00) 0 0 0 0 0
30-05-2020 24.7 (11:50) 19.9 (00:00) 22.3 9.44 (16:00) 5.83 (14:40) 0 0 0 0 0
04-05-2020 24.7 (14:20) 15.7 (00:00) 20.2 9.72 (18:00) 6.11 (22:00) 0 0 0 0 0
05-05-2020 24.6 (14:40) 16.5 (00:00) 20.6 14.17 (17:00) 8.89 (17:00) 0 0 0 0 0
17-05-2020 24.4 (14:10) 18.1 (00:00) 21.3 15 (17:00) 9.44 (15:40) 0 0 0 0 0
06-05-2020 24.2 (16:50) 18.1 (00:00) 21.2 12.22 (09:40) 7.5 (16:20) 0 0 0 0 0
16-05-2020 24.1 (14:40) 17.2 (00:00) 20.7 16.39 (15:00) 10.28 (15:10) 0 0 0 0 0

Gráficas

Temp. máximas Temp. mínimas Temp. medias Precipitaciones Rachas de viento máximas Velocidades máximas media en intervalos de 10 minutos

Datos horarios

Fecha y hora oficial Temperatura (ºC) Velocidad del viento (km/h) Dirección del viento Racha (km/h) Dirección de racha Precipitación (mm) Presión (hPa) Tendencia (hPa) Humedad (%)
2020-06-01 23:00:00 20.9 13 Sudoeste 24 Sudoeste 0 -- -- 74
2020-06-01 22:00:00 21.3 6 Sur 27 Este 0 -- -- 72
2020-06-01 21:00:00 22.2 7 Sudeste 30 Sudoeste 0 -- -- 67
2020-06-01 20:00:00 23.5 20 Sudoeste 35 Sudoeste 0 -- -- 64
2020-06-01 19:00:00 24.5 23 Sudoeste 36 Sur 0 -- -- 68
2020-06-01 18:00:00 24 26 Sur 36 Sur 0 -- -- 74
2020-06-01 17:00:00 25.4 23 Sudoeste 35 Sudoeste 0 -- -- 67
2020-06-01 16:00:00 25.4 21 Sur 33 Sur 0 -- -- 66
2020-06-01 15:00:00 26.3 21 Sur 32 Sudoeste 0 -- -- 62
2020-06-01 14:00:00 24.3 19 Sur 31 Sudoeste 0 -- -- 68
2020-06-01 13:00:00 25.1 21 Sudoeste 31 Sur 0 -- -- 65
2020-06-01 12:00:00 24.3 14 Sur 23 Sur 0 -- -- 69
2020-06-01 11:00:00 24.9 9 Sudeste 17 Sudeste 0 -- -- 65
2020-06-01 10:00:00 23.4 6 Este 12 Nordeste 0 -- -- 70
2020-06-01 09:00:00 22.3 5 Este 8 Sudeste 0 -- -- 71
2020-06-01 08:00:00 18.8 3 Noroeste 8 Noroeste 0 -- -- 83
2020-06-01 07:00:00 16.9 6 Noroeste 8 Noroeste 0 -- -- 85
2020-06-01 06:00:00 17 3 Norte 6 Nordeste 0 -- -- 84
2020-06-01 05:00:00 17.9 4 Nordeste 8 Este 0 -- -- 80
2020-06-01 04:00:00 17.9 4 Nordeste 4 Nordeste 0 -- -- 81
2020-06-01 03:00:00 18.8 3 Norte 5 Nordeste 0 -- -- 81
2020-06-01 02:00:00 19.5 3 Nordeste 9 Nordeste 0 -- -- 81
2020-06-01 01:00:00 20.4 6 Nordeste 10 Nordeste 0 -- -- 80
2020-06-01 00:00:00 19.9 0 Calma 4 Sudeste 0 -- -- 84
2020-05-31 23:00:00 20.4 3 Sudeste 9 Este 0 -- -- 83
2020-05-31 22:00:00 21.4 5 Este 10 Este 0 -- -- 80
2020-05-31 21:00:00 21.6 4 Sudeste 11 Sudoeste 0 -- -- 75
2020-05-31 20:00:00 22 5 Sudoeste 17 Sudeste 0 -- -- 71
2020-05-31 19:00:00 22.4 8 Sudeste 21 Sudeste 0 -- -- 76
2020-05-31 18:00:00 22.1 11 Este 20 Este 0 -- -- 76
2020-05-31 17:00:00 23.2 10 Este 18 Este 0 -- -- 71
2020-05-31 16:00:00 22.8 9 Este 22 Este 0 -- -- 73
2020-05-31 15:00:00 24.9 6 Sudeste 15 Sudeste 0 -- -- 65
2020-05-31 14:00:00 22.6 6 Sur 16 Sudoeste 0 -- -- 72
2020-05-31 13:00:00 24 11 Sur 21 Sudoeste 0 -- -- 67
2020-05-31 12:00:00 23.9 11 Sur 23 Sudoeste 0 -- -- 68
2020-05-31 11:00:00 23.7 11 Sur 18 Sur 0 -- -- 71
2020-05-31 10:00:00 22.6 10 Sur 17 Sur 0 -- -- 75
2020-05-31 09:00:00 22.1 4 Sur 7 Sudoeste 0 -- -- 74
2020-05-31 08:00:00 18.3 3 Norte 6 Norte 0 -- -- 86
2020-05-31 07:00:00 17.1 6 Noroeste 8 Noroeste 0 -- -- 87
2020-05-31 06:00:00 17.9 6 Norte 8 Sudoeste 0 -- -- 86
2020-05-31 05:00:00 19.4 5 Sudoeste 10 Sudoeste 0 -- -- 83
2020-05-31 04:00:00 19.9 8 Sudoeste 13 Sudoeste 0 -- -- 82
2020-05-31 03:00:00 20.7 10 Sudoeste 15 Sudoeste 0 -- -- 77
2020-05-31 02:00:00 20.9 10 Sudoeste 13 Sudoeste 0 -- -- 76
2020-05-31 01:00:00 20.8 5 Sur 10 Sur 0 -- -- 77
2020-05-31 00:00:00 21.2 5 Sur 17 Sudoeste 0 -- -- 74
2020-05-30 23:00:00 21.6 10 Sudoeste 15 Sudoeste 0 -- -- 71
2020-05-30 22:00:00 21.5 3 Este 19 Nordeste 0 -- -- 67
2020-05-30 21:00:00 21.5 11 Nordeste 22 Nordeste 0 -- -- 72
2020-05-30 20:00:00 21.7 15 Nordeste 27 Nordeste 0 -- -- 71
2020-05-30 19:00:00 22.2 17 Nordeste 31 Este 0 -- -- 70
2020-05-30 18:00:00 23.2 17 Nordeste 31 Nordeste 0 -- -- 67
2020-05-30 17:00:00 22.8 17 Nordeste 31 Nordeste 0 -- -- 71
2020-05-30 16:00:00 23.9 19 Nordeste 34 Nordeste 0 -- -- 67
2020-05-30 15:00:00 22.5 17 Este 34 Este 0 -- -- 71
2020-05-30 14:00:00 24.3 19 Este 31 Nordeste 0 -- -- 65
2020-05-30 13:00:00 23.2 18 Este 28 Este 0 -- -- 65
2020-05-30 12:00:00 24.7 14 Este 28 Nordeste 0 -- -- 59
2020-05-30 11:00:00 23.4 9 Sudoeste 17 Oeste 0 -- -- 60
2020-05-30 10:00:00 23.1 6 Noroeste 18 Norte 0 -- -- 59
2020-05-30 09:00:00 21.9 6 Nordeste 16 Norte 0 -- -- 62
2020-05-30 08:00:00 20.9 11 Norte 24 Nordeste 0 -- -- 65
2020-05-30 07:00:00 20.6 11 Nordeste 19 Norte 0 -- -- 70
2020-05-30 06:00:00 20.5 9 Nordeste 17 Nordeste 0 -- -- 74
2020-05-30 05:00:00 20.8 10 Nordeste 15 Nordeste 0 -- -- 70
2020-05-30 04:00:00 20.8 6 Nordeste 18 Nordeste 0 -- -- 69
2020-05-30 03:00:00 20.8 5 Nordeste 15 Nordeste 0 -- -- 69
2020-05-30 02:00:00 20.3 6 Nordeste 17 Norte 0 -- -- 71
2020-05-30 01:00:00 20.1 10 Nordeste 21 Nordeste 0 -- -- 72
2020-05-30 00:00:00 20.4 9 Nordeste 22 Norte 0 -- -- 73
2020-05-29 23:00:00 20.8 14 Nordeste 24 Nordeste 0 -- -- 72
2020-05-29 22:00:00 21.2 11 Nordeste 21 Norte 0 -- -- 68
2020-05-29 21:00:00 21.6 14 Nordeste 25 Nordeste 0 -- -- 69
2020-05-29 20:00:00 23.4 5 Oeste 20 Este 0 -- -- 68
2020-05-29 19:00:00 23.7 10 Sudoeste 20 Sudoeste 0 -- -- 68
2020-05-29 18:00:00 24.6 12 Sudoeste 24 Sudoeste 0 -- -- 66
2020-05-29 17:00:00 24.7 13 Sur 24 Sur 0 -- -- 66
2020-05-29 16:00:00 24.7 14 Sur 25 Sur 0 -- -- 65
2020-05-29 15:00:00 25.7 13 Sur 27 Sudoeste 0 -- -- 62
2020-05-29 14:00:00 24.9 15 Sudoeste 36 Este 0 -- -- 63
2020-05-29 13:00:00 25.5 20 Nordeste 35 Este 0 -- -- 60
2020-05-29 12:00:00 24.4 19 Nordeste 32 Nordeste 0 -- -- 62
2020-05-29 11:00:00 23.7 5 Norte 20 Sudeste 0 -- -- 65
2020-05-29 10:00:00 22.5 7 Este 21 Norte 0 -- -- 68
2020-05-29 09:00:00 20.8 15 Norte 22 Norte 0 -- -- 73
2020-05-29 08:00:00 20 6 Nordeste 15 Norte 0 -- -- 78
2020-05-29 07:00:00 18.9 5 Norte 14 Nordeste 0 -- -- 79
2020-05-29 06:00:00 18.7 8 Nordeste 11 Nordeste 0 -- -- 80
2020-05-29 05:00:00 18.9 3 Este 14 Nordeste 0 -- -- 83
2020-05-29 04:00:00 18.4 9 Norte 23 Norte 0 -- -- 83
2020-05-29 03:00:00 18.5 12 Nordeste 26 Nordeste 0 -- -- 82
2020-05-29 02:00:00 18.8 12 Nordeste 22 Nordeste 0 -- -- 83
2020-05-29 01:00:00 19.1 14 Nordeste 24 Nordeste 0 -- -- 82
2020-05-29 00:00:00 19.3 11 Nordeste 21 Nordeste 0 -- -- 80
2020-05-28 23:00:00 19.6 9 Nordeste 22 Nordeste 0 -- -- 79
2020-05-28 22:00:00 20.2 10 Nordeste 24 Nordeste 0 -- -- 77
2020-05-28 21:00:00 20.9 12 Nordeste 27 Nordeste 0 -- -- 74
2020-05-28 20:00:00 23 15 Nordeste 29 Nordeste 0 -- -- 67
2020-05-28 19:00:00 24.1 17 Nordeste 35 Nordeste 0 -- -- 65
2020-05-28 18:00:00 25 17 Nordeste 33 Nordeste 0 -- -- 63
2020-05-28 17:00:00 25.7 17 Nordeste 33 Nordeste 0 -- -- 61
2020-05-28 16:00:00 25.4 22 Nordeste 36 Este 0 -- -- 62
2020-05-28 15:00:00 25.8 22 Nordeste 35 Nordeste 0 -- -- 61
2020-05-28 14:00:00 25.4 21 Nordeste 34 Nordeste 0 -- -- 62
2020-05-28 13:00:00 25.5 19 Nordeste 33 Nordeste 0 -- -- 61
2020-05-28 12:00:00 25 20 Nordeste 29 Nordeste 0 -- -- 62
2020-05-28 11:00:00 24.3 6 Sur 17 Nordeste 0 -- -- 68
2020-05-28 10:00:00 23.6 10 Nordeste 20 Norte 0 -- -- 65
2020-05-28 09:00:00 20.5 6 Nordeste 15 Nordeste 0 -- -- 81
2020-05-28 08:00:00 17 2 Noroeste 5 Noroeste 0 -- -- 95
2020-05-28 07:00:00 15.7 5 Noroeste 9 Norte 0 -- -- 95
2020-05-28 06:00:00 16.3 5 Norte 8 Norte 0 -- -- 95
2020-05-28 05:00:00 16.1 0 Calma 4 Norte 0 -- -- 94
2020-05-28 04:00:00 17.2 2 Oeste 15 Nordeste 0 -- -- 91
2020-05-28 03:00:00 18.6 11 Nordeste 18 Nordeste 0 -- -- 84
2020-05-28 02:00:00 18.1 6 Nordeste 11 Nordeste 0 -- -- 86
2020-05-28 01:00:00 17.8 4 Nordeste 7 Norte 0 -- -- 87
2020-05-28 00:00:00 18.6 4 Nordeste 9 Sur 0 -- -- 91
2020-05-27 23:00:00 19.1 8 Sur 11 Sur 0 -- -- 90
2020-05-27 22:00:00 19.6 5 Sur 11 Sur 0 -- -- 86
2020-05-27 21:00:00 21.6 5 Sudeste 21 Nordeste 0 -- -- 78
2020-05-27 20:00:00 23.8 14 Nordeste 23 Nordeste 0 -- -- 70
2020-05-27 19:00:00 25 15 Nordeste 27 Nordeste 0 -- -- 66
2020-05-27 18:00:00 25.4 17 Nordeste 27 Nordeste 0 -- -- 63
2020-05-27 17:00:00 24.6 17 Nordeste 33 Nordeste 0 -- -- 66
2020-05-27 16:00:00 25.1 18 Nordeste 33 Nordeste 0 -- -- 63
2020-05-27 15:00:00 24.6 20 Nordeste 30 Nordeste 0 -- -- 66
2020-05-27 14:00:00 24.2 19 Este 32 Nordeste 0 -- -- 66
2020-05-27 13:00:00 24.5 19 Este 32 Nordeste 0 -- -- 64
2020-05-27 12:00:00 25.3 15 Nordeste 26 Este 0 -- -- 62
2020-05-27 11:00:00 24.1 10 Sudoeste 20 Nordeste 0 -- -- 68
2020-05-27 10:00:00 22.7 13 Nordeste 23 Nordeste 0 -- -- 69
2020-05-27 09:00:00 20.3 13 Norte 20 Nordeste 0 -- -- 77
2020-05-27 08:00:00 18.2 10 Nordeste 23 Norte 0 -- -- 87
2020-05-27 07:00:00 17.8 15 Norte 31 Nordeste 0 -- -- 87
2020-05-27 06:00:00 17.8 16 Nordeste 33 Norte 0 -- -- 88
2020-05-27 05:00:00 18.1 16 Norte 28 Norte 0 -- -- 88
2020-05-27 04:00:00 18.6 17 Nordeste 30 Norte 0 -- -- 86
2020-05-27 03:00:00 18.8 18 Nordeste 30 Nordeste 0 -- -- 87
2020-05-27 02:00:00 19.3 17 Norte 30 Nordeste 0 -- -- 86
2020-05-27 01:00:00 19.8 18 Nordeste 31 Nordeste 0 -- -- 82
2020-05-27 00:00:00 20.2 19 Nordeste 29 Nordeste 0 -- -- 80
2020-05-26 23:00:00 20.6 18 Nordeste 29 Nordeste 0 -- -- 79
2020-05-26 22:00:00 21.1 15 Nordeste 31 Nordeste 0 -- -- 79
2020-05-26 21:00:00 21.8 17 Nordeste 30 Nordeste 0 -- -- 76
2020-05-26 20:00:00 23.7 18 Nordeste 33 Nordeste 0 -- -- 71
2020-05-26 19:00:00 25.3 19 Nordeste 32 Nordeste 0 -- -- 66
2020-05-26 18:00:00 26.1 19 Nordeste 33 Nordeste 0 -- -- 64
2020-05-26 17:00:00 26.3 21 Nordeste 34 Nordeste 0 -- -- 63
2020-05-26 16:00:00 27.1 19 Nordeste 34 Nordeste 0 -- -- 60
2020-05-26 15:00:00 27 21 Nordeste 33 Nordeste 0 -- -- 60
2020-05-26 14:00:00 27.3 21 Nordeste 31 Nordeste 0 -- -- 59
2020-05-26 13:00:00 27.3 18 Nordeste 29 Nordeste 0 -- -- 60
2020-05-26 12:00:00 27 18 Nordeste 27 Nordeste 0 -- -- 61
2020-05-26 11:00:00 25.4 9 Sudoeste 15 Sudoeste 0 -- -- 66
2020-05-26 10:00:00 23.7 4 Nordeste 9 Nordeste 0 -- -- 73
2020-05-26 09:00:00 20.7 4 Sur 7 Sur 0 -- -- 93
2020-05-26 08:00:00 19 0 Calma 7 Nordeste 0 -- -- 98
2020-05-26 07:00:00 17.5 2 Sudoeste 10 Sur 0 -- -- 99
2020-05-26 06:00:00 18.7 4 Sur 9 Sudoeste 0 -- -- 98
2020-05-26 05:00:00 19.2 6 Sudoeste 11 Sur 0 -- -- 98
2020-05-26 04:00:00 19.5 6 Sur 13 Sudoeste 0 -- -- 97
2020-05-26 03:00:00 19.3 5 Sudoeste 11 Sudoeste 0 -- -- 96
2020-05-26 02:00:00 19.2 6 Sur 14 Sur 0 -- -- 95
2020-05-26 01:00:00 19.8 6 Sur 15 Sur 0 -- -- 94
2020-05-26 00:00:00 19.6 5 Sudoeste 11 Oeste 0 -- -- 87
2020-05-25 23:00:00 19.9 4 Sudoeste 8 Sudoeste 0 -- -- 91
2020-05-25 22:00:00 20.9 4 Sudoeste 12 Sur 0 -- -- 87
2020-05-25 21:00:00 21.7 9 Sur 15 Sudoeste 0 -- -- 82
2020-05-25 20:00:00 25.7 10 Sudoeste 24 Nordeste 0 -- -- 61
2020-05-25 19:00:00 27.8 15 Nordeste 32 Nordeste 0 -- -- 45
2020-05-25 18:00:00 28.3 15 Nordeste 35 Nordeste 0 -- -- 47
2020-05-25 17:00:00 28.7 22 Nordeste 37 Nordeste 0 -- -- 45
2020-05-25 16:00:00 28 21 Nordeste 41 Nordeste 0 -- -- 48
2020-05-25 15:00:00 25.2 26 Nordeste 41 Nordeste 0 -- -- 65
2020-05-25 14:00:00 25.1 25 Nordeste 38 Nordeste 0 -- -- 65
2020-05-25 13:00:00 26 22 Nordeste 39 Nordeste 0 -- -- 62
2020-05-25 12:00:00 26.4 19 Nordeste 31 Nordeste 0 -- -- 61
2020-05-25 11:00:00 26.6 14 Nordeste 28 Nordeste 0 -- -- 59
2020-05-25 10:00:00 23.7 13 Nordeste 35 Norte 0 -- -- 70
2020-05-25 09:00:00 21.4 19 Norte 32 Norte 0 -- -- 77
2020-05-25 08:00:00 18.7 4 Noroeste 21 Norte 0 -- -- 92
2020-05-25 07:00:00 19.5 12 Norte 27 Norte 0 -- -- 75
2020-05-25 06:00:00 19.2 18 Norte 27 Norte 0 -- -- 82
2020-05-25 05:00:00 19.5 17 Norte 34 Norte 0 -- -- 83
2020-05-25 04:00:00 19.4 19 Norte 29 Norte 0 -- -- 84
2020-05-25 03:00:00 19.9 13 Nordeste 24 Nordeste 0 -- -- 81
2020-05-25 02:00:00 20.4 11 Nordeste 22 Norte 0 -- -- 77
2020-05-25 01:00:00 20.8 7 Norte 21 Nordeste 0 -- -- 73
2020-05-25 00:00:00 21.6 14 Nordeste 20 Nordeste 0 -- -- 70
2020-05-24 23:00:00 22.8 13 Nordeste 27 Norte 0 -- -- 65
2020-05-24 22:00:00 22 13 Nordeste 21 Nordeste 0 -- -- 74
2020-05-24 21:00:00 22.6 9 Nordeste 19 Nordeste 0 -- -- 75
2020-05-24 20:00:00 23.9 5 Sudoeste 17 Sudoeste 0 -- -- 74
2020-05-24 19:00:00 24.2 11 Sudoeste 29 Nordeste 0 -- -- 72
2020-05-24 18:00:00 30.4 15 Norte 31 Nordeste 0 -- -- 40
2020-05-24 17:00:00 29.1 18 Nordeste 35 Nordeste 0 -- -- 49
2020-05-24 16:00:00 26.3 21 Nordeste 38 Nordeste 0 -- -- 63
2020-05-24 15:00:00 26.1 24 Este 42 Este 0 -- -- 63
2020-05-24 14:00:00 25.8 25 Este 42 Nordeste 0 -- -- 62
2020-05-24 13:00:00 26.2 23 Nordeste 48 Nordeste 0 -- -- 60
2020-05-24 12:00:00 26 29 Nordeste 52 Nordeste 0 -- -- 54
2020-05-24 11:00:00 25.6 35 Nordeste 56 Nordeste 0 -- -- 58
2020-05-24 10:00:00 28.9 28 Nordeste 51 Nordeste 0 -- -- 36
2020-05-24 09:00:00 28.2 30 Nordeste 51 Nordeste 0 -- -- 31
2020-05-24 08:00:00 27.2 27 Nordeste 49 Norte 0 -- -- 26
2020-05-24 07:00:00 26.6 31 Nordeste 59 Norte 0 -- -- 28
2020-05-24 06:00:00 26.9 36 Nordeste 63 Nordeste 0 -- -- 30
2020-05-24 05:00:00 26.5 38 Nordeste 63 Norte 0 -- -- 33
2020-05-24 04:00:00 27 40 Nordeste 62 Norte 0 -- -- 33
2020-05-24 03:00:00 24.8 27 Nordeste 46 Norte 0 -- -- 39
2020-05-24 02:00:00 24.1 27 Nordeste 45 Nordeste 0 -- -- 51
2020-05-24 01:00:00 25.4 25 Nordeste 40 Nordeste 0 -- -- 41
2020-05-24 00:00:00 25.9 27 Nordeste 54 Nordeste 0 -- -- 38
2020-05-23 23:00:00 25.3 30 Nordeste 54 Nordeste 0 -- -- 44
2020-05-23 22:00:00 22.3 33 Nordeste 47 Nordeste 0 -- -- 69
2020-05-23 21:00:00 21.8 26 Nordeste 49 Nordeste 0 -- -- 75
2020-05-23 20:00:00 23 29 Nordeste 50 Nordeste 0 -- -- 72
2020-05-23 19:00:00 24.8 28 Nordeste 48 Nordeste 0 -- -- 66
2020-05-23 18:00:00 25.8 30 Nordeste 54 Nordeste 0 -- -- 63
2020-05-23 17:00:00 27.9 30 Nordeste 59 Nordeste 0 -- -- 53
2020-05-23 16:00:00 28.2 33 Nordeste 56 Nordeste 0 -- -- 50
2020-05-23 15:00:00 27.7 35 Nordeste 55 Nordeste 0 -- -- 54
2020-05-23 14:00:00 29.3 33 Nordeste 54 Nordeste 0 -- -- 48
2020-05-23 13:00:00 29.5 33 Nordeste 51 Norte 0 -- -- 45
2020-05-23 12:00:00 28.8 34 Nordeste 53 Nordeste 0 -- -- 44
2020-05-23 11:00:00 27.8 31 Nordeste 51 Nordeste 0 -- -- 45
2020-05-23 10:00:00 26.6 27 Nordeste 44 Nordeste 0 -- -- 48
2020-05-23 09:00:00 25.3 26 Nordeste 42 Nordeste 0 -- -- 48
2020-05-23 08:00:00 22.7 28 Nordeste 43 Nordeste 0 -- -- 56
2020-05-23 07:00:00 22.1 27 Nordeste 44 Nordeste 0 -- -- 57
2020-05-23 06:00:00 23.7 26 Nordeste 45 Nordeste 0 -- -- 46
2020-05-23 05:00:00 24.8 26 Nordeste 45 Nordeste 0 -- -- 43
2020-05-23 04:00:00 24.1 28 Nordeste 50 Nordeste 0 -- -- 49
2020-05-23 03:00:00 23.2 26 Nordeste 60 Nordeste 0 -- -- 53
2020-05-23 02:00:00 24.8 36 Nordeste 59 Nordeste 0 -- -- 45
2020-05-23 01:00:00 24.3 33 Nordeste 60 Nordeste 0 -- -- 46
2020-05-23 00:00:00 25.3 32 Nordeste 53 Nordeste 0 -- -- 40
2020-05-22 23:00:00 25.9 29 Nordeste 47 Nordeste 0 -- -- 38
2020-05-22 22:00:00 23.6 18 Nordeste 43 Nordeste 0 -- -- 49
2020-05-22 21:00:00 22.7 24 Nordeste 43 Nordeste 0 -- -- 56
2020-05-22 20:00:00 24.1 30 Nordeste 51 Nordeste 0 -- -- 52
2020-05-22 19:00:00 26.3 23 Nordeste 40 Nordeste 0 -- -- 48
2020-05-22 18:00:00 27.7 15 Norte 46 Nordeste 0 -- -- 46
2020-05-22 17:00:00 28.3 24 Nordeste 48 Nordeste 0 -- -- 44
2020-05-22 16:00:00 28 33 Nordeste 54 Nordeste 0 -- -- 44
2020-05-22 15:00:00 28 28 Nordeste 52 Nordeste 0 -- -- 45
2020-05-22 14:00:00 26.9 31 Nordeste 52 Nordeste 0 -- -- 47
2020-05-22 13:00:00 27.2 25 Nordeste 53 Nordeste 0 -- -- 45
2020-05-22 12:00:00 25.9 32 Nordeste 53 Nordeste 0 -- -- 46
2020-05-22 11:00:00 25.7 26 Nordeste 48 Nordeste 0 -- -- 44
2020-05-22 10:00:00 23.7 20 Nordeste 42 Nordeste 0 -- -- 48
2020-05-22 09:00:00 20.6 27 Nordeste 48 Nordeste 0 -- -- 61
2020-05-22 08:00:00 18.8 31 Nordeste 53 Nordeste 0 -- -- 69
2020-05-22 07:00:00 17.9 27 Nordeste 51 Norte 0 -- -- 73
2020-05-22 06:00:00 17.9 23 Nordeste 42 Nordeste 0 -- -- 74
2020-05-22 05:00:00 17.7 13 Norte 28 Norte 0 -- -- 71
2020-05-22 04:00:00 17.9 14 Norte 29 Norte 0 -- -- 72
2020-05-22 03:00:00 18.1 16 Norte 53 Nordeste 0 -- -- 72
2020-05-22 02:00:00 18.3 27 Nordeste 52 Nordeste 0 -- -- 71
2020-05-22 01:00:00 18.4 27 Nordeste 59 Norte 0 -- -- 71
2020-05-22 00:00:00 18.6 25 Norte 44 Norte 0 -- -- 69
2020-05-21 23:00:00 18.8 20 Norte 37 Norte 0 -- -- 67
2020-05-21 22:00:00 19.1 21 Nordeste 41 Nordeste 0 -- -- 66
2020-05-21 21:00:00 19.5 26 Nordeste 46 Nordeste 0 -- -- 66
2020-05-21 20:00:00 21.2 28 Nordeste 54 Nordeste 0 -- -- 60
2020-05-21 19:00:00 22.8 28 Nordeste 54 Nordeste 0 -- -- 55
2020-05-21 18:00:00 23.8 30 Nordeste 52 Nordeste 0 -- -- 52
2020-05-21 17:00:00 24.4 30 Nordeste 51 Norte 0 -- -- 52
2020-05-21 16:00:00 24.4 28 Nordeste 49 Nordeste 0 -- -- 53
2020-05-21 15:00:00 25 23 Nordeste 48 Nordeste 0 -- -- 53
2020-05-21 14:00:00 24.5 19 Nordeste 51 Nordeste 0 -- -- 55
2020-05-21 13:00:00 24.7 32 Nordeste 54 Nordeste 0 -- -- 52
2020-05-21 12:00:00 23.5 31 Nordeste 54 Nordeste 0 -- -- 55
2020-05-21 11:00:00 22.4 32 Nordeste 50 Nordeste 0 -- -- 58
2020-05-21 10:00:00 21.6 26 Nordeste 43 Norte 0 -- -- 61
2020-05-21 09:00:00 20.2 22 Norte 39 Nordeste 0 -- -- 65
2020-05-21 08:00:00 18.8 22 Norte 37 Norte 0 -- -- 68
2020-05-21 07:00:00 18.2 23 Norte 48 Nordeste 0 -- -- 72
2020-05-21 06:00:00 18.4 22 Nordeste 53 Nordeste 0 -- -- 69
2020-05-21 05:00:00 19 29 Nordeste 51 Nordeste 0 -- -- 64
2020-05-21 04:00:00 19.8 23 Nordeste 45 Nordeste 0 -- -- 50
2020-05-21 03:00:00 20.7 23 Nordeste 41 Norte 0 -- -- 40
2020-05-21 02:00:00 21.8 25 Nordeste 50 Nordeste 0 -- -- 35
2020-05-21 01:00:00 22 26 Nordeste 47 Norte 0 -- -- 35
2020-05-21 00:00:00 21.9 28 Norte 50 Norte 0 -- -- 36
2020-05-20 23:00:00 21.7 34 Norte 53 Nordeste 0 -- -- 39
2020-05-20 22:00:00 21.6 27 Nordeste 47 Norte 0 -- -- 44
2020-05-20 21:00:00 20.7 27 Nordeste 49 Nordeste 0 -- -- 68
2020-05-20 20:00:00 22.2 28 Nordeste 50 Nordeste 0 -- -- 66
2020-05-20 19:00:00 24.5 28 Nordeste 58 Nordeste 0 -- -- 57
2020-05-20 18:00:00 26.2 34 Nordeste 54 Nordeste 0 -- -- 45
2020-05-20 17:00:00 27.2 34 Nordeste 54 Nordeste 0 -- -- 43
2020-05-20 16:00:00 26.9 35 Nordeste 53 Norte 0 -- -- 47
2020-05-20 15:00:00 26.7 33 Nordeste 55 Nordeste 0 -- -- 49
2020-05-20 14:00:00 26.3 29 Nordeste 50 Nordeste 0 -- -- 54
2020-05-20 13:00:00 25.6 28 Nordeste 50 Nordeste 0 -- -- 56
2020-05-20 12:00:00 25.8 26 Nordeste 50 Nordeste 0 -- -- 54
2020-05-20 11:00:00 24.7 23 Nordeste 44 Nordeste 0 -- -- 56
2020-05-20 10:00:00 23.4 8 Nordeste 23 Norte 0 -- -- 62
2020-05-20 09:00:00 21.2 7 Sudoeste 13 Sur 0 -- -- 78
2020-05-20 08:00:00 18.2 9 Sudoeste 13 Sudoeste 0 -- -- 89
2020-05-20 07:00:00 16.5 3 Noroeste 13 Norte 0 -- -- 86
2020-05-20 06:00:00 15.8 5 Norte 10 Norte 0 -- -- 88
2020-05-20 05:00:00 16.5 3 Noroeste 10 Noroeste 0 -- -- 89
2020-05-20 04:00:00 16.9 6 Noroeste 9 Oeste 0 -- -- 86
2020-05-20 03:00:00 16.6 3 Este 10 Este 0 -- -- 82
2020-05-20 02:00:00 17.8 6 Oeste 9 Oeste 0 -- -- 78
2020-05-20 01:00:00 18.7 4 Nordeste 9 Nordeste 0 -- -- 72
2020-05-20 00:00:00 19.2 2 Este 18 Norte 0 -- -- 69
2020-05-19 23:00:00 20.1 9 Nordeste 19 Nordeste 0 -- -- 69
2020-05-19 22:00:00 19.8 5 Este 12 Nordeste 0 -- -- 73
2020-05-19 21:00:00 20.6 3 Sur 9 Sudeste 0 -- -- 70
2020-05-19 20:00:00 22.6 6 Sur 16 Sur 0 -- -- 71
2020-05-19 19:00:00 23.2 12 Sur 22 Sudoeste 0 -- -- 70
2020-05-19 18:00:00 24.3 13 Sur 27 Sudoeste 0 -- -- 62
2020-05-19 17:00:00 24.4 19 Sudoeste 27 Sudoeste 0 -- -- 63
2020-05-19 16:00:00 25.1 15 Sudoeste 26 Sudoeste 0 -- -- 58
2020-05-19 15:00:00 24.9 15 Sur 28 Sudoeste 0 -- -- 57
2020-05-19 14:00:00 24.2 18 Sur 29 Sur 0 -- -- 57
2020-05-19 13:00:00 24.7 17 Sudoeste 27 Sudoeste 0 -- -- 53
2020-05-19 12:00:00 24.2 16 Sudoeste 30 Sudoeste 0 -- -- 53
2020-05-19 11:00:00 24.3 12 Sur 20 Sudoeste 0 -- -- 51
2020-05-19 10:00:00 22.3 8 Oeste 16 Oeste 0 -- -- 60
2020-05-19 09:00:00 20.6 7 Sudoeste 10 Sudoeste 0 -- -- 67
2020-05-19 08:00:00 16.4 7 Noroeste 10 Noroeste 0 -- -- 75
2020-05-19 07:00:00 15.2 6 Noroeste 9 Norte 0 -- -- 80
2020-05-19 06:00:00 15.9 6 Noroeste 11 Noroeste 0 -- -- 79
2020-05-19 05:00:00 15.8 6 Norte 10 Noroeste 0 -- -- 82
2020-05-19 04:00:00 15.5 6 Noroeste 9 Noroeste 0 -- -- 85
2020-05-19 03:00:00 16.3 7 Norte 9 Norte 0 -- -- 83
2020-05-19 02:00:00 16.4 0 Calma 6 Sur 0 -- -- 82
2020-05-19 01:00:00 17.2 2 Noroeste 9 Sudoeste 0 -- -- 80
2020-05-19 00:00:00 17.9 5 Sur 10 Sudoeste 0 -- -- 80
2020-05-18 23:00:00 19 4 Sur 15 Sudoeste 0 -- -- 76
2020-05-18 22:00:00 19.3 5 Sur 24 Sudoeste 0 -- -- 77
2020-05-18 21:00:00 20 5 Este 27 Norte 0 -- -- 73
2020-05-18 20:00:00 22.4 19 Norte 33 Norte 0 -- -- 59
2020-05-18 19:00:00 22.4 17 Sudoeste 26 Sudoeste 0 -- -- 65
2020-05-18 18:00:00 23.9 15 Sudoeste 26 Sur 0 -- -- 58
2020-05-18 17:00:00 23.6 12 Sudoeste 35 Norte 0 -- -- 58
2020-05-18 16:00:00 23.1 10 Sur 27 Sudoeste 0 -- -- 61
2020-05-18 15:00:00 23.6 10 Sudoeste 41 Nordeste 0 -- -- 57
2020-05-18 14:00:00 23.9 23 Nordeste 42 Nordeste 0 -- -- 55
2020-05-18 13:00:00 23.9 27 Nordeste 46 Norte 0 -- -- 51
2020-05-18 12:00:00 23.7 23 Nordeste 39 Nordeste 0 -- -- 57
2020-05-18 11:00:00 22.6 22 Nordeste 40 Nordeste 0 -- -- 59
2020-05-18 10:00:00 21.1 21 Nordeste 36 Nordeste 0 -- -- 65
2020-05-18 09:00:00 20.7 15 Nordeste 30 Norte 0 -- -- 61
2020-05-18 08:00:00 18.4 11 Norte 28 Norte 0 -- -- 67
2020-05-18 07:00:00 18 14 Nordeste 28 Norte 0 -- -- 72
2020-05-18 06:00:00 18.1 17 Nordeste 31 Nordeste 0 -- -- 72
2020-05-18 05:00:00 18.1 16 Nordeste 30 Nordeste 0 -- -- 75
2020-05-18 04:00:00 18.4 19 Norte 31 Norte 0 -- -- 75
2020-05-18 03:00:00 18.6 18 Nordeste 31 Nordeste 0 -- -- 76
2020-05-18 02:00:00 19.1 19 Norte 34 Norte 0 -- -- 72
2020-05-18 01:00:00 18.9 19 Norte 42 Nordeste 0 -- -- 68
2020-05-18 00:00:00 18.9 26 Norte 42 Nordeste 0 -- -- 65
2020-05-17 23:00:00 18.8 20 Nordeste 37 Nordeste 0 -- -- 66
2020-05-17 22:00:00 19.3 22 Norte 39 Nordeste 0 -- -- 58
2020-05-17 21:00:00 19.6 21 Norte 45 Norte 0 -- -- 54
2020-05-17 20:00:00 20.4 28 Nordeste 44 Norte 0 -- -- 55
2020-05-17 19:00:00 20.5 29 Nordeste 53 Norte 0 -- -- 62
2020-05-17 18:00:00 21.5 31 Nordeste 51 Norte 0 -- -- 57
2020-05-17 17:00:00 22.8 30 Nordeste 54 Nordeste 0 -- -- 54
2020-05-17 16:00:00 22.1 31 Nordeste 50 Nordeste 0 -- -- 59
2020-05-17 15:00:00 23.1 28 Nordeste 46 Nordeste 0 -- -- 57
2020-05-17 14:00:00 23.7 28 Nordeste 46 Norte 0 -- -- 54
2020-05-17 13:00:00 23.3 29 Nordeste 48 Nordeste 0 -- -- 52
2020-05-17 12:00:00 23.1 26 Norte 44 Norte 0 -- -- 50
2020-05-17 11:00:00 22.7 23 Nordeste 36 Nordeste 0 -- -- 52
2020-05-17 10:00:00 21.4 20 Nordeste 36 Nordeste 0 -- -- 58
2020-05-17 09:00:00 20.1 20 Norte 32 Norte 0 -- -- 61
2020-05-17 08:00:00 18.9 18 Norte 29 Nordeste 0 -- -- 69
2020-05-17 07:00:00 18.4 20 Norte 31 Norte 0 -- -- 75
2020-05-17 06:00:00 18.2 15 Norte 30 Nordeste 0 -- -- 75
2020-05-17 05:00:00 18.7 18 Nordeste 28 Norte 0 -- -- 68
2020-05-17 04:00:00 18.7 15 Norte 29 Nordeste 0 -- -- 68
2020-05-17 03:00:00 18.4 13 Norte 36 Norte 0 -- -- 67
2020-05-17 02:00:00 18.8 20 Norte 40 Nordeste 0 -- -- 66
2020-05-17 01:00:00 19 19 Nordeste 36 Norte 0 -- -- 65
2020-05-17 00:00:00 19 20 Norte 42 Norte 0 -- -- 54
2020-05-16 23:00:00 19 21 Norte 37 Nordeste 0 -- -- 62
2020-05-16 22:00:00 19.1 19 Norte 39 Norte 0 -- -- 63
2020-05-16 21:00:00 19.1 22 Norte 40 Nordeste 0 -- -- 60
2020-05-16 20:00:00 20.2 26 Norte 50 Nordeste 0 -- -- 52
2020-05-16 19:00:00 21.8 30 Nordeste 51 Nordeste 0 -- -- 45
2020-05-16 18:00:00 22 27 Norte 51 Norte 0 -- -- 47
2020-05-16 17:00:00 22.5 31 Nordeste 53 Nordeste 0 -- -- 49
2020-05-16 16:00:00 23.1 33 Nordeste 56 Nordeste 0 -- -- 41
2020-05-16 15:00:00 24 32 Nordeste 59 Nordeste 0 -- -- 39
2020-05-16 14:00:00 23.4 32 Nordeste 56 Este 0 -- -- 40
2020-05-16 13:00:00 23.2 34 Nordeste 50 Nordeste 0 -- -- 45
2020-05-16 12:00:00 23.2 31 Nordeste 54 Nordeste 0 -- -- 39
2020-05-16 11:00:00 22.5 24 Norte 41 Nordeste 0 -- -- 39
2020-05-16 10:00:00 21.1 18 Nordeste 38 Nordeste 0 -- -- 48
2020-05-16 09:00:00 19.5 22 Nordeste 36 Norte 0 -- -- 60
2020-05-16 08:00:00 18.1 21 Nordeste 35 Norte 0 -- -- 71
2020-05-16 07:00:00 17.6 12 Nordeste 39 Norte 0 -- -- 62
2020-05-16 06:00:00 18.5 22 Norte 36 Norte 0 -- -- 56
2020-05-16 05:00:00 18.2 19 Nordeste 33 Nordeste 0 -- -- 68
2020-05-16 04:00:00 18.4 13 Nordeste 31 Nordeste 0 -- -- 70
2020-05-16 03:00:00 18.5 17 Norte 32 Norte 0 -- -- 63
2020-05-16 02:00:00 18.9 15 Nordeste 31 Norte 0 -- -- 67
2020-05-16 01:00:00 18.7 14 Nordeste 31 Nordeste 0 -- -- 68
2020-05-16 00:00:00 18.8 19 Nordeste 37 Norte 0 -- -- 65
2020-05-15 23:00:00 19 22 Nordeste 42 Norte 0 -- -- 66
2020-05-15 22:00:00 19.3 22 Nordeste 44 Norte 0 -- -- 63
2020-05-15 21:00:00 19.7 22 Nordeste 41 Norte 0 -- -- 61
2020-05-15 20:00:00 21.6 16 Nordeste 30 Nordeste 0 -- -- 54
2020-05-15 19:00:00 22.1 14 Sudoeste 35 Oeste 0 -- -- 54
2020-05-15 18:00:00 24.2 10 Sudeste 24 Sudoeste 0 -- -- 50
2020-05-15 17:00:00 23.7 16 Sur 27 Sudoeste 0 -- -- 54
2020-05-15 16:00:00 24.7 15 Sudoeste 25 Sudoeste 0 -- -- 48
2020-05-15 15:00:00 25.5 17 Sudoeste 31 Norte 0 -- -- 41
2020-05-15 14:00:00 23.1 13 Noroeste 33 Norte 0 -- -- 52
2020-05-15 13:00:00 22.3 21 Norte 39 Norte 0 -- -- 54
2020-05-15 12:00:00 23.6 11 Sur 21 Sur 0 -- -- 48
2020-05-15 11:00:00 21.6 14 Sur 22 Sudoeste 0 -- -- 50
2020-05-15 10:00:00 21.6 15 Sudoeste 22 Sudoeste 0 -- -- 49
2020-05-15 09:00:00 21 8 Sur 15 Sur 0 -- -- 48
2020-05-15 08:00:00 16.5 3 Noroeste 12 Sudoeste 0 -- -- 47
2020-05-15 07:00:00 14.6 2 Noroeste 13 Norte 0 -- -- 52
2020-05-15 06:00:00 15.8 10 Norte 18 Norte 0 -- -- 52
2020-05-15 05:00:00 16.9 12 Nordeste 28 Nordeste 0 -- -- 55
2020-05-15 04:00:00 17.5 9 Nordeste 22 Norte 0 -- -- 50
2020-05-15 03:00:00 17.9 16 Nordeste 39 Norte 0 -- -- 58
2020-05-15 02:00:00 17.9 15 Norte 37 Norte 0 -- -- 63
2020-05-15 01:00:00 18.6 17 Norte 33 Norte 0 -- -- 59
2020-05-15 00:00:00 18.8 15 Nordeste 27 Norte 0 -- -- 59
2020-05-14 23:00:00 19.1 9 Nordeste 25 Nordeste 0 -- -- 52
2020-05-14 22:00:00 19.8 9 Norte 20 Norte 0 -- -- 49
2020-05-14 21:00:00 20.8 7 Norte 23 Nordeste 0 -- -- 49
2020-05-14 20:00:00 21.4 4 Sudeste 19 Nordeste 0 -- -- 54
2020-05-14 19:00:00 21.3 10 Nordeste 22 Este 0 -- -- 57
2020-05-14 18:00:00 23 8 Este 15 Nordeste 0 -- -- 56
2020-05-14 17:00:00 22.5 8 Sur 18 Sur 0 -- -- 54
2020-05-14 16:00:00 23.1 13 Sur 24 Sudoeste 0 -- -- 55
2020-05-14 15:00:00 24.7 15 Sur 24 Sur 0 -- -- 52
2020-05-14 14:00:00 23.1 14 Sur 27 Sur 0 -- -- 57
2020-05-14 13:00:00 23.3 14 Sudeste 26 Sudeste 0 -- -- 59
2020-05-14 12:00:00 23.7 14 Sudeste 24 Sudeste 0 -- -- 59
2020-05-14 11:00:00 24.6 10 Sudeste 21 Sudeste 0 -- -- 55
2020-05-14 10:00:00 22.1 6 Sur 13 Sur 0 -- -- 59
2020-05-14 09:00:00 20 3 Noroeste 9 Noroeste 0 -- -- 57
2020-05-14 08:00:00 17.5 6 Noroeste 10 Noroeste 0 -- -- 65
2020-05-14 07:00:00 16.3 7 Noroeste 12 Noroeste 0 -- -- 70
2020-05-14 06:00:00 16.4 8 Noroeste 10 Noroeste 0 -- -- 70
2020-05-14 05:00:00 16.8 6 Norte 11 Norte 0 -- -- 69
2020-05-14 04:00:00 17.1 8 Norte 12 Norte 0 -- -- 70
2020-05-14 03:00:00 16.7 4 Oeste 9 Norte 0 -- -- 59
2020-05-14 02:00:00 17.3 5 Nordeste 14 Norte 0 -- -- 55
2020-05-14 01:00:00 18.5 6 Norte 19 Nordeste 0 -- -- 56
2020-05-14 00:00:00 19.2 12 Nordeste 23 Nordeste 0 -- -- 55
2020-05-13 23:00:00 19.3 8 Nordeste 15 Nordeste 0 -- -- 55
2020-05-13 22:00:00 19.7 8 Nordeste 13 Nordeste 0 -- -- 58
2020-05-13 21:00:00 20.3 6 Este 15 Sudeste 0 -- -- 65
2020-05-13 20:00:00 21.7 10 Sudeste 17 Sur 0 -- -- 70
2020-05-13 19:00:00 23.7 12 Sur 20 Sur 0 -- -- 62
2020-05-13 18:00:00 24.4 13 Sur 22 Sur 0 -- -- 57
2020-05-13 17:00:00 25.4 13 Sur 22 Sudeste 0 -- -- 52
2020-05-13 16:00:00 25.2 11 Sudeste 22 Sur 0 -- -- 56
2020-05-13 15:00:00 24.4 11 Sur 26 Sudoeste 0 -- -- 56
2020-05-13 14:00:00 24.4 17 Sur 27 Sur 0 -- -- 57
2020-05-13 13:00:00 24.4 17 Sur 25 Sur 0 -- -- 59
2020-05-13 12:00:00 23.9 12 Sur 21 Sudoeste 0 -- -- 60
2020-05-13 11:00:00 21.8 8 Sudeste 21 Nordeste 0 -- -- 71
2020-05-13 10:00:00 21.3 5 Norte 19 Sur 0 -- -- 72
2020-05-13 09:00:00 20.7 10 Sur 16 Sur 0 -- -- 78
2020-05-13 08:00:00 19.6 3 Este 8 Noroeste 0 -- -- 69
2020-05-13 07:00:00 18.2 4 Noroeste 6 Norte 0 -- -- 77
2020-05-13 06:00:00 17.4 5 Noroeste 8 Noroeste 0 -- -- 77
2020-05-13 05:00:00 18.2 6 Noroeste 9 Oeste 0 -- -- 75
2020-05-13 04:00:00 19 6 Sudoeste 11 Sudoeste 0 -- -- 74
2020-05-13 03:00:00 19.6 5 Sudoeste 13 Sudoeste 0 -- -- 73
2020-05-13 02:00:00 19 0 Calma 10 Sudoeste 0 -- -- 73
2020-05-13 01:00:00 19.7 8 Oeste 12 Oeste 0 -- -- 70
2020-05-13 00:00:00 19.8 7 Oeste 12 Sudoeste 0 -- -- 69
2020-05-12 23:00:00 20.1 9 Sudoeste 13 Sudoeste 0 -- -- 67
2020-05-12 22:00:00 20.2 8 Sudoeste 12 Sudoeste 0 -- -- 67
2020-05-12 21:00:00 20.7 6 Sudoeste 10 Sudoeste 0 -- -- 65
2020-05-12 20:00:00 21.8 6 Sudeste 15 Sudeste 0 -- -- 60
2020-05-12 19:00:00 23.8 10 Sudeste 21 Este 0 -- -- 55
2020-05-12 18:00:00 24.3 13 Sudeste 22 Sudeste 0 -- -- 54
2020-05-12 17:00:00 23.5 12 Sudeste 22 Sudeste 0 -- -- 56
2020-05-12 16:00:00 23.1 12 Sur 22 Sur 0 -- -- 57
2020-05-12 15:00:00 23.1 15 Sur 22 Sur 0 -- -- 57
2020-05-12 14:00:00 24.4 13 Sur 24 Sudoeste 0 -- -- 55
2020-05-12 13:00:00 23.2 17 Sudoeste 25 Sudoeste 0 -- -- 58
2020-05-12 12:00:00 23.7 9 Sur 19 Sur 0 -- -- 56
2020-05-12 11:00:00 23.5 9 Sur 22 Este 0 -- -- 54
2020-05-12 10:00:00 23.1 9 Sudeste 15 Este 0 -- -- 59
2020-05-12 09:00:00 22 2 Nordeste 9 Norte 0 -- -- 61
2020-05-12 08:00:00 18.8 6 Noroeste 10 Noroeste 0 -- -- 67
2020-05-12 07:00:00 18.2 7 Noroeste 10 Noroeste 0 -- -- 72
2020-05-12 06:00:00 18.7 2 Norte 9 Noroeste 0 -- -- 71
2020-05-12 05:00:00 18.1 4 Nordeste 9 Nordeste 0 -- -- 60
2020-05-12 04:00:00 18.1 2 Nordeste 7 Nordeste 0 -- -- 59
2020-05-12 03:00:00 19.5 4 Norte 9 Nordeste 0 -- -- 61
2020-05-12 02:00:00 18.8 0 Calma 6 Norte 0 -- -- 80
2020-05-12 01:00:00 18.5 2 Noroeste 6 Noroeste 0 -- -- 83
2020-05-12 00:00:00 19.6 3 Sudoeste 9 Este 0 -- -- 83
2020-05-11 23:00:00 20.2 7 Este 13 Sudeste 0 -- -- 82
2020-05-11 22:00:00 20.5 7 Sur 12 Sur 0 -- -- 80
2020-05-11 21:00:00 20.6 8 Sur 19 Sur 0 -- -- 78
2020-05-11 20:00:00 21.6 12 Sur 22 Sudoeste 0 -- -- 72
2020-05-11 19:00:00 23.2 13 Sur 23 Sudoeste 0 -- -- 67
2020-05-11 18:00:00 23.1 13 Sudoeste 25 Sudoeste 0 -- -- 64
2020-05-11 17:00:00 24.8 15 Sudoeste 22 Sudoeste 0 -- -- 62
2020-05-11 16:00:00 24.8 13 Sur 25 Sudoeste 0 -- -- 63
2020-05-11 15:00:00 25.3 15 Sudoeste 24 Sudoeste 0 -- -- 54
2020-05-11 14:00:00 24.5 14 Sur 27 Sudoeste 0 -- -- 60
2020-05-11 13:00:00 24.6 17 Sur 24 Sur 0 -- -- 61
2020-05-11 12:00:00 24.2 15 Sur 24 Sur 0 -- -- 63
2020-05-11 11:00:00 23.8 14 Sudoeste 22 Sudoeste 0 -- -- 62
2020-05-11 10:00:00 22.5 9 Sudoeste 16 Sur 0 -- -- 67
2020-05-11 09:00:00 21.1 3 Oeste 9 Norte 0 -- -- 72
2020-05-11 08:00:00 17.7 6 Noroeste 10 Noroeste 0 -- -- 83
2020-05-11 07:00:00 17.6 4 Noroeste 8 Norte 0 -- -- 83
2020-05-11 06:00:00 17.1 5 Noroeste 8 Norte 0 -- -- 84
2020-05-11 05:00:00 17.8 3 Norte 17 Nordeste 0 -- -- 77
2020-05-11 04:00:00 18.4 8 Norte 19 Nordeste 0 -- -- 77
2020-05-11 03:00:00 19 8 Nordeste 20 Nordeste 0 -- -- 75
2020-05-11 02:00:00 19.1 4 Este 17 Nordeste 0 -- -- 77
2020-05-11 01:00:00 19.4 2 Norte 15 Sur 0 -- -- 76
2020-05-11 00:00:00 19.7 8 Sur 16 Sudeste 0 -- -- 79
2020-05-10 23:00:00 19.5 8 Sudeste 13 Sudoeste 0 -- -- 84
2020-05-10 22:00:00 20 6 Sur 22 Sudoeste 0 -- -- 81
2020-05-10 21:00:00 20.6 11 Sudoeste 21 Sudoeste 0 -- -- 79
2020-05-10 20:00:00 22.1 12 Sudoeste 26 Sur 0 -- -- 73
2020-05-10 19:00:00 23.3 17 Sudoeste 27 Sudoeste 0 -- -- 67
2020-05-10 18:00:00 24.2 16 Sur 26 Sudoeste 0 -- -- 63
2020-05-10 17:00:00 25.3 18 Sudoeste 30 Sudoeste 0 -- -- 55
2020-05-10 16:00:00 25.1 20 Sudoeste 28 Sudoeste 0 -- -- 57
2020-05-10 15:00:00 25.7 16 Sudoeste 28 Sudoeste 0 -- -- 51
2020-05-10 14:00:00 25.1 19 Sudoeste 32 Sudoeste 0 -- -- 54
2020-05-10 13:00:00 25 18 Sudoeste 29 Sudoeste 0 -- -- 55
2020-05-10 12:00:00 23.9 14 Sudoeste 25 Sudoeste 0 -- -- 58
2020-05-10 11:00:00 22.7 13 Sudoeste 23 Sudoeste 0 -- -- 63
2020-05-10 10:00:00 24 10 Sur 20 Sudoeste 0 -- -- 52
2020-05-10 09:00:00 21.3 13 Nordeste 19 Nordeste 0 -- -- 60
2020-05-10 08:00:00 18.8 8 Nordeste 12 Norte 0 -- -- 64
2020-05-10 07:00:00 17.9 6 Noroeste 16 Norte 0 -- -- 74
2020-05-10 06:00:00 18.4 11 Norte 20 Norte 0 -- -- 75
2020-05-10 05:00:00 17.7 6 Norte 11 Norte 0 -- -- 85
2020-05-10 04:00:00 17.8 7 Oeste 10 Sudoeste 0 -- -- 83
2020-05-10 03:00:00 18 4 Oeste 10 Este 0 -- -- 79
2020-05-10 02:00:00 18.6 4 Sudoeste 9 Este 0 -- -- 79
2020-05-10 01:00:00 19.1 4 Sudoeste 7 Sudoeste 0 -- -- 81
2020-05-10 00:00:00 19 4 Sur 10 Sudoeste 0 -- -- 85
2020-05-09 23:00:00 19.2 7 Sudoeste 10 Sudoeste 0 -- -- 82
2020-05-09 22:00:00 19.6 5 Sur 10 Sudoeste 0 -- -- 81
2020-05-09 21:00:00 20.5 6 Sudoeste 13 Sudoeste 0 -- -- 77
2020-05-09 20:00:00 21.4 9 Sudoeste 15 Sudoeste 0 -- -- 74
2020-05-09 19:00:00 21.9 9 Sur 21 Sur 0 -- -- 73
2020-05-09 18:00:00 22.7 12 Sur 24 Sudoeste 0 -- -- 70
2020-05-09 17:00:00 22.5 18 Sudoeste 26 Sudoeste 0 -- -- 69
2020-05-09 16:00:00 22.9 13 Sur 37 Sudoeste 0 -- -- 68
2020-05-09 15:00:00 24.3 23 Sudoeste 34 Sur 0 -- -- 62
2020-05-09 14:00:00 24.6 21 Sudoeste 32 Sudoeste 0 -- -- 62
2020-05-09 13:00:00 25.8 12 Sudeste 23 Este 0 -- -- 60
2020-05-09 12:00:00 23.7 8 Sur 20 Sur 0 -- -- 62
2020-05-09 11:00:00 22.7 16 Sudoeste 23 Sudoeste 0 -- -- 65
2020-05-09 10:00:00 22.4 14 Sur 22 Sudoeste 0 -- -- 68
2020-05-09 09:00:00 20.9 5 Sudoeste 9 Sudoeste 0 -- -- 69
2020-05-09 08:00:00 17.2 6 Noroeste 9 Noroeste 0 -- -- 79
2020-05-09 07:00:00 15.8 6 Noroeste 9 Norte 0 -- -- 81
2020-05-09 06:00:00 15.9 6 Nordeste 9 Norte 0 -- -- 82
2020-05-09 05:00:00 15.6 4 Noroeste 6 Norte 0 -- -- 79
2020-05-09 04:00:00 16.5 5 Norte 7 Este 0 -- -- 77
2020-05-09 03:00:00 16.5 5 Norte 8 Norte 0 -- -- 77
2020-05-09 02:00:00 18.1 5 Nordeste 17 Nordeste 0 -- -- 76
2020-05-09 01:00:00 18.9 12 Norte 20 Norte 0 -- -- 74
2020-05-09 00:00:00 19.2 10 Nordeste 22 Nordeste 0 -- -- 75
2020-05-08 23:00:00 19.6 11 Nordeste 22 Norte 0 -- -- 74
2020-05-08 22:00:00 20.2 10 Nordeste 21 Norte 0 -- -- 70
2020-05-08 21:00:00 20.7 4 Sudeste 26 Norte 0 -- -- 69
2020-05-08 20:00:00 21.6 15 Nordeste 36 Nordeste 0 -- -- 68
2020-05-08 19:00:00 22.8 20 Nordeste 41 Nordeste 0 -- -- 63
2020-05-08 18:00:00 23.4 23 Nordeste 41 Nordeste 0 -- -- 61
2020-05-08 17:00:00 24.1 26 Nordeste 44 Nordeste 0 -- -- 57
2020-05-08 16:00:00 24.7 23 Nordeste 44 Nordeste 0 -- -- 57
2020-05-08 15:00:00 24.7 26 Nordeste 45 Este 0 -- -- 56
2020-05-08 14:00:00 24.7 23 Nordeste 40 Nordeste 0 -- -- 55
2020-05-08 13:00:00 24.5 26 Nordeste 38 Nordeste 0 -- -- 54
2020-05-08 12:00:00 24.6 19 Nordeste 35 Nordeste 0 -- -- 55
2020-05-08 11:00:00 23.6 19 Nordeste 35 Nordeste 0 -- -- 59
2020-05-08 10:00:00 23 12 Nordeste 20 Nordeste 0 -- -- 58
2020-05-08 09:00:00 20.5 7 Norte 11 Norte 0 -- -- 58
2020-05-08 08:00:00 16.5 4 Norte 10 Nordeste 0 -- -- 73
2020-05-08 07:00:00 15.9 7 Norte 15 Nordeste 0 -- -- 74
2020-05-08 06:00:00 16 9 Norte 11 Norte 0 -- -- 74
2020-05-08 05:00:00 16.4 9 Norte 11 Nordeste 0 -- -- 73
2020-05-08 04:00:00 17.1 8 Norte 18 Norte 0 -- -- 70
2020-05-08 03:00:00 17.6 6 Norte 19 Norte 0 -- -- 66
2020-05-08 02:00:00 18.9 12 Norte 25 Nordeste 0 -- -- 61
2020-05-08 01:00:00 18.8 12 Norte 21 Nordeste 0 -- -- 73
2020-05-08 00:00:00 19.1 12 Norte 23 Nordeste 0 -- -- 70
2020-05-07 23:00:00 19.3 10 Nordeste 30 Nordeste 0 -- -- 71
2020-05-07 22:00:00 19.7 14 Nordeste 29 Nordeste 0 -- -- 67
2020-05-07 21:00:00 20.4 18 Nordeste 29 Nordeste 0 -- -- 66
2020-05-07 20:00:00 21.2 3 Sudoeste 16 Sur 0 -- -- 66
2020-05-07 19:00:00 21.6 11 Sudoeste 21 Sur 0 -- -- 64
2020-05-07 18:00:00 22.1 15 Sudoeste 22 Sudoeste 0 -- -- 63
2020-05-07 17:00:00 22.6 14 Sudoeste 31 Norte 0 -- -- 58
2020-05-07 16:00:00 22.4 12 Norte 43 Norte 0 -- -- 59
2020-05-07 15:00:00 23.7 24 Nordeste 45 Nordeste 0 -- -- 53
2020-05-07 14:00:00 24.4 24 Nordeste 44 Este 0 -- -- 52
2020-05-07 13:00:00 23.8 26 Nordeste 44 Nordeste 0 -- -- 52
2020-05-07 12:00:00 23.4 26 Nordeste 41 Nordeste 0 -- -- 55
2020-05-07 11:00:00 23.3 22 Nordeste 35 Nordeste 0 -- -- 59
2020-05-07 10:00:00 22.5 15 Nordeste 28 Norte 0 -- -- 55
2020-05-07 09:00:00 20.8 7 Nordeste 17 Nordeste 0 -- -- 61
2020-05-07 08:00:00 16.5 3 Nordeste 10 Norte 0 -- -- 74
2020-05-07 07:00:00 17.1 4 Nordeste 21 Nordeste 0 -- -- 72
2020-05-07 06:00:00 17.9 10 Nordeste 22 Norte 0 -- -- 72
2020-05-07 05:00:00 18.4 9 Norte 21 Norte 0 -- -- 69
2020-05-07 04:00:00 17.8 9 Norte 22 Nordeste 0 -- -- 71
2020-05-07 03:00:00 18.6 13 Nordeste 26 Nordeste 0 -- -- 74
2020-05-07 02:00:00 18.6 13 Nordeste 26 Nordeste 0 -- -- 75
2020-05-07 01:00:00 18.7 13 Nordeste 26 Nordeste 0 -- -- 74
2020-05-07 00:00:00 19 12 Norte 24 Nordeste 0 -- -- 71
2020-05-06 23:00:00 19.5 15 Nordeste 27 Nordeste 0 -- -- 68
2020-05-06 22:00:00 20.1 15 Nordeste 31 Nordeste 0 -- -- 66
2020-05-06 21:00:00 20.1 17 Nordeste 33 Nordeste 0 -- -- 69
2020-05-06 20:00:00 20.9 24 Nordeste 42 Norte 0 -- -- 67
2020-05-06 19:00:00 21.5 25 Nordeste 43 Nordeste 0 -- -- 66
2020-05-06 18:00:00 22.8 25 Nordeste 42 Nordeste 0 -- -- 63
2020-05-06 17:00:00 23.6 25 Nordeste 43 Nordeste 0 -- -- 60
2020-05-06 16:00:00 23.7 25 Nordeste 43 Nordeste 0 -- -- 59
2020-05-06 15:00:00 23.7 25 Nordeste 42 Nordeste 0 -- -- 56
2020-05-06 14:00:00 23.8 26 Nordeste 42 Nordeste 0 -- -- 55
2020-05-06 13:00:00 24 26 Nordeste 44 Nordeste 0 -- -- 54
2020-05-06 12:00:00 23.8 22 Nordeste 42 Norte 0 -- -- 55
2020-05-06 11:00:00 22.6 23 Nordeste 41 Nordeste 0 -- -- 61
2020-05-06 10:00:00 22 23 Nordeste 44 Norte 0 -- -- 61
2020-05-06 09:00:00 20.2 24 Norte 37 Norte 0 -- -- 61
2020-05-06 08:00:00 19 18 Nordeste 32 Nordeste 0 -- -- 67
2020-05-06 07:00:00 18.3 14 Nordeste 31 Norte 0 -- -- 71
2020-05-06 06:00:00 18.5 15 Norte 32 Norte 0 -- -- 67
2020-05-06 05:00:00 18.5 17 Nordeste 30 Nordeste 0 -- -- 67
2020-05-06 04:00:00 18.8 19 Norte 34 Nordeste 0 -- -- 66
2020-05-06 03:00:00 18.8 19 Nordeste 35 Nordeste 0 -- -- 66
2020-05-06 02:00:00 19 21 Nordeste 36 Norte 0 -- -- 64
2020-05-06 01:00:00 19.2 20 Nordeste 35 Nordeste 0 -- -- 59
2020-05-06 00:00:00 19.3 23 Nordeste 40 Nordeste 0 -- -- 61
2020-05-05 23:00:00 19.3 15 Nordeste 29 Nordeste 0 -- -- 59
2020-05-05 22:00:00 19.6 14 Nordeste 30 Nordeste 0 -- -- 57
2020-05-05 21:00:00 20.2 18 Nordeste 41 Nordeste 0 -- -- 57
2020-05-05 20:00:00 22 24 Nordeste 44 Nordeste 0 -- -- 50
2020-05-05 19:00:00 23.1 23 Nordeste 44 Nordeste 0 -- -- 53
2020-05-05 18:00:00 23.4 26 Nordeste 50 Este 0 -- -- 49
2020-05-05 17:00:00 23.4 32 Nordeste 51 Nordeste 0 -- -- 52
2020-05-05 16:00:00 24.2 28 Nordeste 48 Este 0 -- -- 52
2020-05-05 15:00:00 24.2 26 Nordeste 44 Nordeste 0 -- -- 52
2020-05-05 14:00:00 24.4 25 Nordeste 45 Norte 0 -- -- 52
2020-05-05 13:00:00 23.7 27 Nordeste 44 Nordeste 0 -- -- 51
2020-05-05 12:00:00 23.4 23 Nordeste 42 Nordeste 0 -- -- 53
2020-05-05 11:00:00 22.9 21 Nordeste 37 Nordeste 0 -- -- 53
2020-05-05 10:00:00 21.9 19 Norte 31 Nordeste 0 -- -- 54
2020-05-05 09:00:00 20.4 17 Norte 25 Nordeste 0 -- -- 58
2020-05-05 08:00:00 17.9 7 Norte 20 Nordeste 0 -- -- 64
2020-05-05 07:00:00 17.7 10 Nordeste 18 Norte 0 -- -- 68
2020-05-05 06:00:00 18 9 Nordeste 23 Norte 0 -- -- 65
2020-05-05 05:00:00 18 10 Norte 22 Nordeste 0 -- -- 66
2020-05-05 04:00:00 18.8 13 Nordeste 25 Norte 0 -- -- 63
2020-05-05 03:00:00 18.6 10 Nordeste 22 Nordeste 0 -- -- 69
2020-05-05 02:00:00 19 12 Norte 24 Nordeste 0 -- -- 72
2020-05-05 01:00:00 20.1 16 Norte 33 Nordeste 0 -- -- 62
2020-05-05 00:00:00 20.5 22 Norte 31 Norte 0 -- -- 60
2020-05-04 23:00:00 20.3 15 Nordeste 32 Nordeste 0 -- -- 64
2020-05-04 22:00:00 20.6 22 Norte 33 Norte 0 -- -- 64
2020-05-04 21:00:00 20.9 21 Norte 33 Norte 0 -- -- 65
2020-05-04 20:00:00 21.6 18 Nordeste 31 Nordeste 0 -- -- 68
2020-05-04 19:00:00 22.1 18 Nordeste 30 Nordeste 0 -- -- 70
2020-05-04 18:00:00 22.4 18 Nordeste 35 Nordeste 0 -- -- 68
2020-05-04 17:00:00 24 16 Este 31 Nordeste 0 -- -- 64
2020-05-04 16:00:00 23.4 19 Este 32 Este 0 -- -- 66
2020-05-04 15:00:00 24.2 19 Este 31 Este 0 -- -- 65
2020-05-04 14:00:00 24.5 17 Este 33 Este 0 -- -- 64
2020-05-04 13:00:00 24.1 17 Este 34 Este 0 -- -- 67
2020-05-04 12:00:00 23.6 17 Este 27 Nordeste 0 -- -- 70
2020-05-04 11:00:00 23 17 Este 30 Este 0 -- -- 71
2020-05-04 10:00:00 22.4 18 Nordeste 29 Nordeste 0 -- -- 70
2020-05-04 09:00:00 21.1 12 Nordeste 24 Nordeste 0 -- -- 74
2020-05-04 08:00:00 17.1 7 Norte 10 Norte 0 -- -- 84
2020-05-04 07:00:00 15.7 4 Norte 8 Norte 0 -- -- 91
2020-05-04 06:00:00 16.4 5 Norte 9 Norte 0 -- -- 90
2020-05-04 05:00:00 16.5 6 Noroeste 9 Norte 0 -- -- 89
2020-05-04 04:00:00 17.1 7 Norte 8 Norte 0 -- -- 87
2020-05-04 03:00:00 16.8 5 Norte 6 Norte 0 -- -- 86
2020-05-04 02:00:00 17.9 3 Nordeste 8 Norte 0 -- -- 84
2020-05-04 01:00:00 18.7 4 Norte 6 Nordeste 0 -- -- 83
2020-05-04 00:00:00 19.5 2 Nordeste 9 Sur 0 -- -- 80
2020-05-03 23:00:00 19.9 5 Sur 12 Sudeste 0 -- -- 79
2020-05-03 22:00:00 19.7 4 Sudeste 9 Este 0 -- -- 84
2020-05-03 21:00:00 19.6 7 Este 17 Este 0 -- -- 82
2020-05-03 20:00:00 21.6 10 Nordeste 19 Este 0 -- -- 73
2020-05-03 19:00:00 23.2 13 Este 22 Nordeste 0 -- -- 68
2020-05-03 18:00:00 25.2 13 Nordeste 31 Sudoeste 0 -- -- 61
2020-05-03 17:00:00 24.6 21 Sudoeste 43 Sudoeste 0 -- -- 60
2020-05-03 16:00:00 25.3 28 Sudoeste 47 Sudoeste 0 -- -- 59
2020-05-03 15:00:00 24.3 28 Sudoeste 44 Sudoeste 0 -- -- 64
2020-05-03 14:00:00 23.6 26 Sudoeste 38 Sudoeste 0 -- -- 64
2020-05-03 13:00:00 23.3 20 Sur 30 Sudoeste 0 -- -- 65
2020-05-03 12:00:00 23 14 Sur 22 Sur 0 -- -- 66
2020-05-03 11:00:00 22.3 9 Sur 15 Sur 0 -- -- 67
2020-05-03 10:00:00 21.2 4 Sur 13 Oeste 0 -- -- 70
2020-05-03 09:00:00 19.2 4 Noroeste 11 Norte 0 -- -- 75
2020-05-03 08:00:00 15.8 4 Noroeste 8 Oeste 0 -- -- 89
2020-05-03 07:00:00 16.5 8 Nordeste 14 Nordeste 0 -- -- 89
2020-05-03 06:00:00 15.9 5 Norte 13 Norte 0 -- -- 91
2020-05-03 05:00:00 17.3 9 Norte 14 Nordeste 0 -- -- 88
2020-05-03 04:00:00 18.2 3 Noroeste 10 Oeste 0 -- -- 86
2020-05-03 03:00:00 18.8 7 Este 11 Este 0 -- -- 87
2020-05-03 02:00:00 18.8 4 Este 8 Sur 0 -- -- 89
2020-05-03 01:00:00 18.6 3 Sur 10 Sudoeste 0 -- -- 89
2020-05-03 00:00:00 17.5 0 Calma 8 Oeste 0 -- -- 86